Airfield :
LOGIN :

Register | Disclaimer

   EN    FR    IT 

 










Legend :    VFR   Marginal VFR   IFR   Intensive IFR   Very Intensive IFR
Visi :
Ceiling :
>= 8 km
>= 3000ft
5 to 8 km
1000 to 3000 ft
1500m to 5 km
500 to 1000 ft
800 to 1500m
200 to 500 ft
< 800m
< 200 ft
Symbols :   Thunderstorms  Fog  Heavy snow  Heavy precipitations  Wind > 20 kt
SIGMETs :     Misc.  Thunderstorms  Icing  Turbulence  Mountain Waves  Volcanic Ashes







- Airport Elevation : 287 ft
- Download approach charts


LFRL - Lanveoc Poulmic

CURRENT METAR :
  • 180830Z AUTO 07004KT 030V090 CAVOK 16/13 Q1011 TEMPO SHRA BKN060CB

EXPIRED METARs :
  • 180800Z AUTO 06004KT 020V080 9999 ///TCU 15/13 Q1011 TEMPO SHRA BKN060CB
  • 180730Z AUTO 05003KT 020V100 CAVOK 15/13 Q1011 TEMPO SHRA BKN060CB
  • 180700Z AUTO 07006KT CAVOK 14/12 Q1011 TEMPO SHRA BKN060CB
  • 180630Z AUTO 05008KT 9999 FEW047 OVC098 14/12 Q1011 TEMPO SHRA BKN060CB

TAF TAF LFRL
Valid from the 18 at 06:00 until the 19 at 06:00 UTC


180500Z 1806/1906 04010KT CAVOK
TEMPO 1806/1821 04010G20KT SHRA BKN070TCU
PROB30
TEMPO 1806/1821 BKN060CB
BECMG 1821/1824 3000 -RA BKN005
No reported NOTAMs for that airfield.
1 SIGMET reported for the Brest FIR (LFRR) :
 
Embedded thunderstorms
LFRR SIGMET 4 VALID 180800/181000 LFPW
LFRR BREST FIR/UIR EMBD TS OBS WI N4700 W00245 - N4800 W00330 - N4815 W00300 - N4730 W00200 - N4700 W00245 TOP FL350 MOV NE 15KT NC=



MET'MAP, your aeronautical weather chart ! - Copyright ORBIFLY December 2007 - Disclaimer

ORBIFLY MET'MAP TEAM :

Programming & Development : Alexandra Zaïnal
Concept & Development : Baudouin d'Aumeries
Co-Development & Prog : Marc-Olivier Méhu
Technical & hardware support : Manuel Goepfert

Contact : metmap@orbifly.com




SOURCES & CREDITS :

   NOAA